createdAt,value
2018-08-27T00:01:38.984Z,56.40
2018-08-27T00:04:06.143Z,55.00
2018-08-27T00:06:33.257Z,55.20
2018-08-27T00:09:01.307Z,55.20
2018-08-27T00:11:28.678Z,55.20
2018-08-27T00:13:55.812Z,55.30
2018-08-27T00:16:22.985Z,55.80
2018-08-27T00:18:50.161Z,55.00
2018-08-27T00:21:17.398Z,55.20
2018-08-27T00:23:44.567Z,55.70
2018-08-27T00:26:11.689Z,56.40
2018-08-27T00:28:38.795Z,56.00
2018-08-27T00:31:06.087Z,56.00
2018-08-27T00:33:33.192Z,56.00
2018-08-27T00:36:00.333Z,55.80
2018-08-27T00:38:27.472Z,56.00
2018-08-27T00:40:54.617Z,56.00
2018-08-27T00:43:21.734Z,55.90
2018-08-27T00:45:48.910Z,56.10
2018-08-27T00:48:16.018Z,56.20
2018-08-27T00:50:43.146Z,56.50
2018-08-27T00:53:10.255Z,56.50
2018-08-27T00:55:37.425Z,56.80
2018-08-27T00:58:04.585Z,57.30
2018-08-27T01:00:31.695Z,57.40
2018-08-27T01:02:58.806Z,57.40
2018-08-27T01:05:25.910Z,57.50
2018-08-27T01:07:53.026Z,57.50
2018-08-27T01:10:20.347Z,57.30
2018-08-27T01:12:47.527Z,57.20
2018-08-27T01:15:14.672Z,57.20
2018-08-27T01:17:41.838Z,56.80
2018-08-27T01:20:08.975Z,56.60
2018-08-27T01:22:36.227Z,56.60
2018-08-27T01:25:03.351Z,56.90
2018-08-27T01:27:30.519Z,57.20
2018-08-27T01:29:57.662Z,57.30
2018-08-27T01:32:25.492Z,57.30
2018-08-27T01:34:52.723Z,57.60
2018-08-27T01:37:19.920Z,57.60
2018-08-27T01:39:47.085Z,57.60
2018-08-27T01:42:14.198Z,58.10
2018-08-27T01:44:41.310Z,58.10
2018-08-27T01:47:08.517Z,58.10
2018-08-27T01:49:35.638Z,58.10
2018-08-27T01:52:02.754Z,57.90
2018-08-27T01:54:29.870Z,57.50
2018-08-27T01:56:57.010Z,58.00
2018-08-27T01:59:24.122Z,58.30
2018-08-27T02:01:51.311Z,58.90
2018-08-27T02:04:18.479Z,59.10
2018-08-27T02:06:51.344Z,59.00
2018-08-27T02:09:18.512Z,59.70
2018-08-27T02:11:45.826Z,60.00
2018-08-27T02:14:12.947Z,59.80
2018-08-27T02:16:40.053Z,60.00
2018-08-27T02:19:07.214Z,59.20
2018-08-27T02:21:34.347Z,58.90
2018-08-27T02:24:01.514Z,59.00
2018-08-27T02:26:28.655Z,59.00
2018-08-27T02:28:55.807Z,59.40
2018-08-27T02:31:22.960Z,60.10
2018-08-27T02:33:50.157Z,60.20
2018-08-27T02:36:17.307Z,59.30
2018-08-27T02:38:44.451Z,59.00
2018-08-27T02:41:11.593Z,59.50
2018-08-27T02:43:38.735Z,60.30
2018-08-27T02:46:05.885Z,61.00
2018-08-27T02:48:32.999Z,61.80
2018-08-27T02:51:00.115Z,62.90
2018-08-27T02:53:27.210Z,63.00
2018-08-27T02:55:54.331Z,62.90
2018-08-27T02:58:21.479Z,61.90
2018-08-27T03:00:48.642Z,62.10
2018-08-27T03:03:15.743Z,61.70
2018-08-27T03:05:42.888Z,62.60
2018-08-27T03:08:09.994Z,61.80
2018-08-27T03:10:37.186Z,60.90
2018-08-27T03:13:04.356Z,61.30
2018-08-27T03:15:31.496Z,62.20
2018-08-27T03:17:58.650Z,63.10
2018-08-27T03:20:25.807Z,63.00
2018-08-27T03:22:52.949Z,63.50
2018-08-27T03:25:20.094Z,63.30
2018-08-27T03:27:47.234Z,63.90
2018-08-27T03:30:14.376Z,63.20
2018-08-27T03:32:41.518Z,62.70
2018-08-27T03:35:08.688Z,62.60
2018-08-27T03:37:35.823Z,61.30
2018-08-27T03:40:02.979Z,60.90
2018-08-27T03:42:30.083Z,60.60
2018-08-27T03:44:57.197Z,60.60
2018-08-27T03:47:24.318Z,60.80
2018-08-27T03:49:51.478Z,61.20
2018-08-27T03:52:18.647Z,62.00
2018-08-27T03:54:45.807Z,61.30
2018-08-27T03:57:12.935Z,61.70
2018-08-27T03:59:40.066Z,62.10
2018-08-27T04:02:07.261Z,62.20
2018-08-27T04:04:34.383Z,62.50
2018-08-27T04:07:01.523Z,63.10
2018-08-27T04:09:28.618Z,63.30
2018-08-27T04:11:55.793Z,63.80
2018-08-27T04:14:22.961Z,64.40
2018-08-27T04:16:50.168Z,64.50
2018-08-27T04:19:17.299Z,64.60
2018-08-27T04:21:44.442Z,64.60
2018-08-27T04:24:11.570Z,65.30
2018-08-27T04:26:38.746Z,65.50
2018-08-27T04:29:05.893Z,66.10
2018-08-27T04:31:33.131Z,66.90
2018-08-27T04:34:00.260Z,67.80
2018-08-27T04:36:27.371Z,70.90
2018-08-27T04:38:54.534Z,78.30
2018-08-27T04:41:21.711Z,83.40
2018-08-27T04:43:48.873Z,87.90
2018-08-27T04:46:15.974Z,91.50
2018-08-27T04:48:43.082Z,95.60
2018-08-27T04:51:10.194Z,99.90
2018-08-27T04:53:37.329Z,99.90
2018-08-27T04:56:04.695Z,99.90
2018-08-27T04:58:34.610Z,99.90
2018-08-27T05:01:01.718Z,98.40
2018-08-27T05:03:28.826Z,99.90
2018-08-27T05:05:55.945Z,99.90
2018-08-27T05:08:23.123Z,99.90
2018-08-27T05:10:50.257Z,99.90
2018-08-27T05:13:17.480Z,99.90
2018-08-27T05:15:44.699Z,99.90
2018-08-27T05:18:11.835Z,99.90
2018-08-27T05:20:39.077Z,99.90
2018-08-27T05:23:06.202Z,99.90
2018-08-27T05:25:33.359Z,99.90
2018-08-27T05:28:00.475Z,99.90
2018-08-27T05:30:27.596Z,99.90
2018-08-27T05:32:54.847Z,99.90
2018-08-27T05:35:22.020Z,99.90
2018-08-27T05:37:49.171Z,99.90
2018-08-27T05:40:16.290Z,99.90
2018-08-27T05:42:43.408Z,99.90
2018-08-27T05:45:10.604Z,99.90
2018-08-27T05:47:37.756Z,99.90
2018-08-27T05:50:05.050Z,99.90
2018-08-27T05:52:32.167Z,99.90
2018-08-27T05:54:59.647Z,99.90
2018-08-27T05:57:26.759Z,99.90
2018-08-27T05:59:53.882Z,99.90
2018-08-27T06:02:21.061Z,99.90
2018-08-27T06:04:48.219Z,99.90
2018-08-27T06:07:15.362Z,99.90
2018-08-27T06:09:42.689Z,99.90
2018-08-27T06:12:09.760Z,99.90
2018-08-27T06:14:36.890Z,99.90
2018-08-27T06:17:04.555Z,99.90
2018-08-27T06:19:31.625Z,99.90
2018-08-27T06:21:58.820Z,99.90
2018-08-27T06:24:25.864Z,99.90
2018-08-27T06:26:53.069Z,99.90
2018-08-27T06:29:20.220Z,99.90
2018-08-27T06:31:47.351Z,99.90
2018-08-27T06:34:14.531Z,99.90
2018-08-27T06:36:41.671Z,99.90
2018-08-27T06:39:09.490Z,99.90
2018-08-27T06:41:36.777Z,99.90
2018-08-27T06:44:03.918Z,99.90
2018-08-27T06:46:31.043Z,99.90
2018-08-27T06:48:58.158Z,99.90
2018-08-27T06:51:25.415Z,99.90
2018-08-27T06:53:52.911Z,99.90
2018-08-27T06:56:20.040Z,99.90
2018-08-27T06:58:47.167Z,99.90
2018-08-27T07:01:14.271Z,99.90
2018-08-27T07:03:41.376Z,99.90
2018-08-27T07:06:08.576Z,99.90
2018-08-27T07:08:35.696Z,99.90
2018-08-27T07:11:02.881Z,99.90
2018-08-27T07:13:29.983Z,99.90
2018-08-27T07:15:57.107Z,99.90
2018-08-27T07:18:24.411Z,99.90
2018-08-27T07:20:51.576Z,99.90
2018-08-27T07:23:18.823Z,99.90
2018-08-27T07:25:45.947Z,99.90
2018-08-27T07:28:13.057Z,99.90
2018-08-27T07:30:40.206Z,99.90
2018-08-27T07:33:07.355Z,99.90
2018-08-27T07:35:34.537Z,99.90
2018-08-27T07:38:01.607Z,99.90
2018-08-27T07:40:28.729Z,99.90
2018-08-27T07:42:55.854Z,99.90
2018-08-27T07:45:23.003Z,99.90
2018-08-27T07:47:50.217Z,99.90
2018-08-27T07:50:17.358Z,99.90
2018-08-27T07:52:44.480Z,99.90
2018-08-27T07:55:11.654Z,99.90
2018-08-27T07:57:38.796Z,99.90
2018-08-27T08:00:06.502Z,99.90
2018-08-27T08:02:33.652Z,99.90
2018-08-27T08:05:00.815Z,99.90
2018-08-27T08:07:27.953Z,99.90
2018-08-27T08:09:55.067Z,99.90
2018-08-27T08:12:22.288Z,99.90
2018-08-27T08:14:50.021Z,99.90
2018-08-27T08:17:17.145Z,99.90
2018-08-27T08:19:44.384Z,99.90
2018-08-27T08:22:11.514Z,99.90
2018-08-27T08:24:38.699Z,99.90
2018-08-27T08:27:05.838Z,99.90
2018-08-27T08:29:32.958Z,99.90
2018-08-27T08:32:00.090Z,99.90
2018-08-27T08:34:27.220Z,99.90
2018-08-27T08:36:54.346Z,99.90
2018-08-27T08:39:21.472Z,99.90
2018-08-27T08:41:48.680Z,99.90
2018-08-27T08:44:15.790Z,99.90
2018-08-27T08:46:42.936Z,99.90
2018-08-27T08:49:10.038Z,99.90
2018-08-27T08:51:37.236Z,99.90
2018-08-27T08:54:04.478Z,99.90
2018-08-27T08:56:31.592Z,99.90
2018-08-27T08:58:58.718Z,99.90
2018-08-27T09:01:25.846Z,99.90
2018-08-27T09:03:53.004Z,99.90
2018-08-27T09:06:20.219Z,99.90
2018-08-27T09:08:47.316Z,99.90
2018-08-27T09:11:14.427Z,99.90
2018-08-27T09:13:41.547Z,99.90
2018-08-27T09:16:08.795Z,99.90
2018-08-27T09:18:36.050Z,99.90
2018-08-27T09:21:03.302Z,99.90
2018-08-27T09:23:30.507Z,99.90
2018-08-27T09:25:57.635Z,99.90
2018-08-27T09:28:24.788Z,99.90
2018-08-27T09:30:51.942Z,99.90
2018-08-27T09:33:19.218Z,99.90
2018-08-27T09:35:46.448Z,99.90
2018-08-27T09:38:13.595Z,99.90
2018-08-27T09:40:40.786Z,98.50
2018-08-27T09:43:08.011Z,96.90
2018-08-27T09:45:35.106Z,95.30
2018-08-27T09:48:02.619Z,94.10
2018-08-27T09:50:30.009Z,94.30
2018-08-27T09:52:57.200Z,94.60
2018-08-27T09:55:24.431Z,94.10
2018-08-27T09:57:51.571Z,93.60
2018-08-27T10:00:24.333Z,92.30
2018-08-27T10:02:51.526Z,91.40
2018-08-27T10:05:18.768Z,91.50
2018-08-27T10:07:45.890Z,87.90
2018-08-27T10:10:13.014Z,87.20
2018-08-27T10:12:40.130Z,86.80
2018-08-27T10:15:07.320Z,86.00
2018-08-27T10:17:34.619Z,85.10
2018-08-27T10:20:01.817Z,84.70
2018-08-27T10:22:28.994Z,81.50
2018-08-27T10:24:56.092Z,79.90
2018-08-27T10:27:23.203Z,79.10
2018-08-27T10:29:50.373Z,79.30
2018-08-27T10:32:17.457Z,79.60
2018-08-27T10:34:44.570Z,80.90
2018-08-27T10:37:11.758Z,80.90
2018-08-27T10:39:38.854Z,81.50
2018-08-27T10:42:06.063Z,81.40
2018-08-27T10:44:33.154Z,81.70
2018-08-27T10:47:00.299Z,82.20
2018-08-27T10:49:27.412Z,83.30
2018-08-27T10:51:54.548Z,84.70
2018-08-27T10:54:21.690Z,82.10
2018-08-27T10:56:48.870Z,81.50
2018-08-27T10:59:16.030Z,81.90
2018-08-27T11:01:43.199Z,82.90
2018-08-27T11:04:10.489Z,81.50
2018-08-27T11:06:37.698Z,81.40
2018-08-27T11:09:05.970Z,80.90
2018-08-27T11:11:33.082Z,80.00
2018-08-27T11:14:00.255Z,79.60
2018-08-27T11:16:27.403Z,80.40
2018-08-27T11:18:54.558Z,80.70
2018-08-27T11:21:21.746Z,81.70
2018-08-27T11:23:48.922Z,81.70
2018-08-27T11:26:16.094Z,81.70
2018-08-27T11:28:43.175Z,81.60
2018-08-27T11:31:10.302Z,82.80
2018-08-27T11:33:37.463Z,82.80
2018-08-27T11:36:04.677Z,83.30
2018-08-27T11:38:31.802Z,82.80
2018-08-27T11:40:58.924Z,83.40
2018-08-27T11:43:26.120Z,85.00
2018-08-27T11:45:53.234Z,85.00
2018-08-27T11:48:20.400Z,85.60
2018-08-27T11:50:47.588Z,86.10
2018-08-27T11:53:14.678Z,86.60
2018-08-27T11:55:41.852Z,85.40
2018-08-27T11:58:08.963Z,84.50
2018-08-27T12:00:41.907Z,83.70
2018-08-27T12:03:09.048Z,83.80
2018-08-27T12:05:36.178Z,84.10
2018-08-27T12:08:03.312Z,84.00
2018-08-27T12:10:30.446Z,84.00
2018-08-27T12:12:57.643Z,84.00
2018-08-27T12:15:24.787Z,82.70
2018-08-27T12:17:52.119Z,78.80
2018-08-27T12:20:19.335Z,76.90
2018-08-27T12:22:46.528Z,75.10
2018-08-27T12:25:13.651Z,73.80
2018-08-27T12:27:41.046Z,72.60
2018-08-27T12:30:08.270Z,72.00
2018-08-27T12:32:35.370Z,70.30
2018-08-27T12:35:02.504Z,69.00
2018-08-27T12:37:29.618Z,66.40
2018-08-27T12:39:56.783Z,65.30
2018-08-27T12:42:24.006Z,65.20
2018-08-27T12:44:51.208Z,65.80
2018-08-27T12:47:18.515Z,65.00
2018-08-27T12:49:45.927Z,65.40
2018-08-27T12:52:13.339Z,65.30
2018-08-27T12:54:40.438Z,66.00
2018-08-27T12:57:07.582Z,65.50
2018-08-27T12:59:34.704Z,65.30
2018-08-27T13:02:02.051Z,65.10
2018-08-27T13:04:29.153Z,65.00
2018-08-27T13:06:56.268Z,64.50
2018-08-27T13:09:23.379Z,64.90
2018-08-27T13:11:50.618Z,64.50
2018-08-27T13:14:17.766Z,64.60
2018-08-27T13:16:44.874Z,65.70
2018-08-27T13:19:12.027Z,66.20
2018-08-27T13:21:39.135Z,65.90
2018-08-27T13:24:06.266Z,67.00
2018-08-27T13:26:33.399Z,67.10
2018-08-27T13:29:00.551Z,67.60
2018-08-27T13:31:27.868Z,68.60
2018-08-27T13:33:55.020Z,68.70
2018-08-27T13:36:22.516Z,68.60
2018-08-27T13:38:49.711Z,67.90
2018-08-27T13:41:16.832Z,67.20
2018-08-27T13:43:43.987Z,66.30
2018-08-27T13:46:11.159Z,66.10
2018-08-27T13:48:38.376Z,65.70
2018-08-27T13:51:05.571Z,65.20
2018-08-27T13:53:32.699Z,65.70
2018-08-27T13:55:59.816Z,66.90
2018-08-27T13:58:26.948Z,66.80
2018-08-27T14:00:54.184Z,67.50
2018-08-27T14:03:21.411Z,67.30
2018-08-27T14:05:48.604Z,67.30
2018-08-27T14:08:15.687Z,67.30
2018-08-27T14:10:42.925Z,67.40
2018-08-27T14:13:09.984Z,68.40
2018-08-27T14:15:37.175Z,69.70
2018-08-27T14:18:04.318Z,70.90
2018-08-27T14:20:31.566Z,70.80
2018-08-27T14:22:58.682Z,70.70
2018-08-27T14:25:25.871Z,71.30
2018-08-27T14:27:53.003Z,70.40
2018-08-27T14:30:20.234Z,70.50
2018-08-27T14:32:47.452Z,70.10
2018-08-27T14:35:14.567Z,69.80
2018-08-27T14:37:41.679Z,68.90
2018-08-27T14:40:09.198Z,69.00
2018-08-27T14:42:36.343Z,69.10
2018-08-27T14:45:03.576Z,69.60
2018-08-27T14:47:30.663Z,70.00
2018-08-27T14:49:57.817Z,70.20
2018-08-27T14:52:24.984Z,70.00
2018-08-27T14:54:52.134Z,69.50
2018-08-27T14:57:19.320Z,69.80
2018-08-27T14:59:46.450Z,70.60
2018-08-27T15:02:13.600Z,71.80
2018-08-27T15:04:40.798Z,72.10
2018-08-27T15:07:07.949Z,72.70
2018-08-27T15:09:35.115Z,71.80
2018-08-27T15:12:02.279Z,71.40
2018-08-27T15:14:29.396Z,71.20
2018-08-27T15:16:56.550Z,71.20
2018-08-27T15:19:23.719Z,70.10
2018-08-27T15:21:50.951Z,69.50
2018-08-27T15:24:18.095Z,69.30
2018-08-27T15:26:45.207Z,69.10
2018-08-27T15:29:12.342Z,70.30
2018-08-27T15:31:39.498Z,71.50
2018-08-27T15:34:06.902Z,72.40
2018-08-27T15:36:34.185Z,72.80
2018-08-27T15:39:01.424Z,73.40
2018-08-27T15:41:28.446Z,74.10
2018-08-27T15:43:55.571Z,74.70
2018-08-27T15:46:28.440Z,75.50
2018-08-27T15:48:55.632Z,76.00
2018-08-27T15:51:22.913Z,77.10
2018-08-27T15:53:50.050Z,78.60
2018-08-27T15:56:17.226Z,79.70
2018-08-27T15:58:44.318Z,81.20
2018-08-27T16:01:12.255Z,82.90
2018-08-27T16:03:40.053Z,83.90
2018-08-27T16:06:07.835Z,83.60
2018-08-27T16:08:34.950Z,83.50
2018-08-27T16:11:02.125Z,83.90
2018-08-27T16:13:29.267Z,84.70
2018-08-27T16:15:56.415Z,85.10
2018-08-27T16:18:23.529Z,84.50
2018-08-27T16:20:50.668Z,84.30
2018-08-27T16:23:17.829Z,84.90
2018-08-27T16:25:45.006Z,85.80
2018-08-27T16:28:12.162Z,87.20
2018-08-27T16:30:39.354Z,87.60
2018-08-27T16:33:06.572Z,89.40
2018-08-27T16:35:33.711Z,90.50
2018-08-27T16:38:00.875Z,90.80
2018-08-27T16:40:28.116Z,91.50
2018-08-27T16:42:55.455Z,92.40
2018-08-27T16:45:22.719Z,93.00
2018-08-27T16:47:49.921Z,93.80
2018-08-27T16:50:17.114Z,94.80
2018-08-27T16:52:44.238Z,96.10
2018-08-27T16:55:11.428Z,96.50
2018-08-27T16:57:38.532Z,97.10
2018-08-27T17:00:08.091Z,97.90
2018-08-27T17:02:35.232Z,97.70
2018-08-27T17:05:02.411Z,97.80
2018-08-27T17:07:29.558Z,97.10
2018-08-27T17:09:56.731Z,96.80
2018-08-27T17:12:23.858Z,96.60
2018-08-27T17:14:50.982Z,96.90
2018-08-27T17:17:18.151Z,96.80
2018-08-27T17:19:45.311Z,96.70
2018-08-27T17:22:12.535Z,96.50
2018-08-27T17:24:39.654Z,96.80
2018-08-27T17:27:06.776Z,96.80
2018-08-27T17:29:33.965Z,97.10
2018-08-27T17:32:01.110Z,97.30
2018-08-27T17:34:28.261Z,97.90
2018-08-27T17:36:55.405Z,97.90
2018-08-27T17:39:22.680Z,98.10
2018-08-27T17:41:49.845Z,99.30
2018-08-27T17:44:17.010Z,99.90
2018-08-27T17:46:44.151Z,99.90
2018-08-27T17:49:11.281Z,99.90
2018-08-27T17:51:38.469Z,99.90
2018-08-27T17:54:05.602Z,99.90
2018-08-27T17:56:32.702Z,99.90
2018-08-27T17:59:00.303Z,99.90
2018-08-27T18:01:28.256Z,99.90
2018-08-27T18:03:55.415Z,99.90
2018-08-27T18:06:22.653Z,99.90
2018-08-27T18:08:49.862Z,99.90
2018-08-27T18:11:17.147Z,99.90
2018-08-27T18:13:44.367Z,99.90
2018-08-27T18:16:11.531Z,99.90
2018-08-27T18:18:38.720Z,99.90
2018-08-27T18:21:05.927Z,99.90
2018-08-27T18:23:33.067Z,99.90
2018-08-27T18:26:00.175Z,99.90
2018-08-27T18:28:27.308Z,99.90
2018-08-27T18:30:54.465Z,99.90
2018-08-27T18:33:21.634Z,99.90
2018-08-27T18:35:48.798Z,99.90
2018-08-27T18:38:15.940Z,99.90
2018-08-27T18:40:43.059Z,99.90
2018-08-27T18:43:10.234Z,99.90
2018-08-27T18:45:37.344Z,99.90
2018-08-27T18:48:04.649Z,99.90
2018-08-27T18:50:31.766Z,99.90
2018-08-27T18:52:58.861Z,99.90
2018-08-27T18:55:25.996Z,99.90
2018-08-27T18:57:53.153Z,99.90
2018-08-27T19:00:20.564Z,99.90
2018-08-27T19:02:47.723Z,99.90
2018-08-27T19:05:14.956Z,99.90
2018-08-27T19:07:42.208Z,99.90
2018-08-27T19:10:09.410Z,99.90
2018-08-27T19:12:36.719Z,99.90
2018-08-27T19:15:03.886Z,99.90
2018-08-27T19:17:31.053Z,99.90
2018-08-27T19:19:58.134Z,99.90
2018-08-27T19:22:25.289Z,99.90
2018-08-27T19:24:52.419Z,99.90
2018-08-27T19:27:19.567Z,99.90
2018-08-27T19:29:46.860Z,99.90
2018-08-27T19:32:13.943Z,99.90
2018-08-27T19:34:41.293Z,99.90
2018-08-27T19:37:08.526Z,99.90
2018-08-27T19:39:35.584Z,99.90
2018-08-27T19:42:02.787Z,99.90
2018-08-27T19:44:30.156Z,99.90
2018-08-27T19:46:57.260Z,99.90
2018-08-27T19:49:24.378Z,99.90
2018-08-27T19:51:51.663Z,99.90
2018-08-27T19:54:18.847Z,99.90
2018-08-27T19:56:46.067Z,99.90
2018-08-27T19:59:13.250Z,99.90
2018-08-27T20:01:40.378Z,99.90
2018-08-27T20:04:07.524Z,99.90
2018-08-27T20:06:34.679Z,99.90
2018-08-27T20:09:02.013Z,99.90
2018-08-27T20:11:29.180Z,99.90
2018-08-27T20:13:56.289Z,99.90
2018-08-27T20:16:23.491Z,99.90
2018-08-27T20:18:50.595Z,99.90
2018-08-27T20:21:17.755Z,99.90
2018-08-27T20:23:44.915Z,99.90
2018-08-27T20:26:12.104Z,99.90
2018-08-27T20:28:39.302Z,99.90
2018-08-27T20:31:06.481Z,99.90
2018-08-27T20:33:33.634Z,99.90
2018-08-27T20:36:00.797Z,99.90
2018-08-27T20:38:27.970Z,99.90
2018-08-27T20:40:55.114Z,99.90
2018-08-27T20:43:22.328Z,99.90
2018-08-27T20:45:49.483Z,99.90
2018-08-27T20:48:16.649Z,99.90
2018-08-27T20:50:43.846Z,99.90
2018-08-27T20:53:10.973Z,99.90
2018-08-27T20:55:38.095Z,99.90
2018-08-27T20:58:05.284Z,99.90
2018-08-27T21:00:32.431Z,99.90
2018-08-27T21:02:59.624Z,99.90
2018-08-27T21:05:26.706Z,99.90
2018-08-27T21:07:53.842Z,99.90
2018-08-27T21:10:21.591Z,99.90
2018-08-27T21:12:48.790Z,99.90
2018-08-27T21:15:16.879Z,99.90
2018-08-27T21:17:47.510Z,99.90
2018-08-27T21:20:15.485Z,99.90
2018-08-27T21:22:42.765Z,99.90
2018-08-27T21:25:10.655Z,99.90
2018-08-27T21:27:38.296Z,99.90
2018-08-27T21:30:07.738Z,99.90
2018-08-27T21:32:34.939Z,99.90
2018-08-27T21:35:02.176Z,99.90
2018-08-27T21:37:29.327Z,99.90
2018-08-27T21:39:56.488Z,99.90
2018-08-27T21:42:23.627Z,99.90
2018-08-27T21:44:50.773Z,99.90
2018-08-27T21:47:17.969Z,99.90
2018-08-27T21:49:45.135Z,99.90
2018-08-27T21:52:12.275Z,99.90
2018-08-27T21:54:39.480Z,99.90
2018-08-27T21:57:06.759Z,99.90
2018-08-27T21:59:34.175Z,99.90
2018-08-27T22:02:01.306Z,99.90
2018-08-27T22:04:28.540Z,99.90
2018-08-27T22:06:55.733Z,99.90
2018-08-27T22:09:22.894Z,99.90
2018-08-27T22:11:50.023Z,99.90
2018-08-27T22:14:17.212Z,99.90
2018-08-27T22:16:44.354Z,99.90
2018-08-27T22:19:11.475Z,99.90
2018-08-27T22:21:38.667Z,99.90
2018-08-27T22:24:05.966Z,99.90
2018-08-27T22:26:33.128Z,99.90
2018-08-27T22:29:00.575Z,99.90
2018-08-27T22:31:28.056Z,99.90
2018-08-27T22:33:55.413Z,99.90
2018-08-27T22:36:22.514Z,99.90
2018-08-27T22:38:49.667Z,99.90
2018-08-27T22:41:16.828Z,99.90
2018-08-27T22:43:43.974Z,99.90
2018-08-27T22:46:11.095Z,99.90
2018-08-27T22:48:38.196Z,99.90
2018-08-27T22:51:05.338Z,99.90
2018-08-27T22:53:32.467Z,99.90
2018-08-27T22:55:59.838Z,99.90
2018-08-27T22:58:26.973Z,99.90
2018-08-27T23:00:54.096Z,99.90
2018-08-27T23:03:26.832Z,99.90
2018-08-27T23:05:53.983Z,99.90
2018-08-27T23:08:21.114Z,99.90
2018-08-27T23:10:48.471Z,99.90
2018-08-27T23:13:15.840Z,99.90
2018-08-27T23:15:42.992Z,99.90
2018-08-27T23:18:10.114Z,99.90
2018-08-27T23:20:37.352Z,99.90
2018-08-27T23:23:04.639Z,99.90
2018-08-27T23:25:32.000Z,99.90
2018-08-27T23:27:59.127Z,99.90
2018-08-27T23:30:26.242Z,99.90
2018-08-27T23:32:53.386Z,99.90
2018-08-27T23:35:20.711Z,99.90
2018-08-27T23:37:47.926Z,99.90
2018-08-27T23:40:15.081Z,99.90
2018-08-27T23:42:42.199Z,99.90
2018-08-27T23:45:09.415Z,99.90
2018-08-27T23:47:36.576Z,99.90
2018-08-27T23:50:03.919Z,99.90
2018-08-27T23:52:31.256Z,99.90
2018-08-27T23:54:58.291Z,99.90
2018-08-27T23:57:25.454Z,99.90
2018-08-27T23:59:52.638Z,99.90
